sensor_id;sensor_type;location;lat;lon;timestamp;P1;durP1;ratioP1;P2;durP2;ratioP2
7843;SDS011;3967;48.702;9.326;2023-11-19T00:00:07;3.60;;;3.30;;
7843;SDS011;3967;48.702;9.326;2023-11-19T00:02:40;4.87;;;3.27;;
7843;SDS011;3967;48.702;9.326;2023-11-19T00:05:09;3.20;;;2.97;;
7843;SDS011;3967;48.702;9.326;2023-11-19T00:07:38;4.73;;;3.47;;
7843;SDS011;3967;48.702;9.326;2023-11-19T00:10:09;4.10;;;3.70;;
7843;SDS011;3967;48.702;9.326;2023-11-19T00:12:38;7.60;;;4.87;;
7843;SDS011;3967;48.702;9.326;2023-11-19T00:15:06;4.87;;;4.17;;
7843;SDS011;3967;48.702;9.326;2023-11-19T00:17:38;6.60;;;4.87;;
7843;SDS011;3967;48.702;9.326;2023-11-19T00:20:12;6.90;;;5.07;;
7843;SDS011;3967;48.702;9.326;2023-11-19T00:22:41;6.23;;;4.73;;
7843;SDS011;3967;48.702;9.326;2023-11-19T00:25:11;6.33;;;4.13;;
7843;SDS011;3967;48.702;9.326;2023-11-19T00:27:38;7.00;;;4.90;;
7843;SDS011;3967;48.702;9.326;2023-11-19T00:30:05;8.20;;;4.97;;
7843;SDS011;3967;48.702;9.326;2023-11-19T00:32:32;5.17;;;4.50;;
7843;SDS011;3967;48.702;9.326;2023-11-19T00:34:59;7.47;;;5.27;;
7843;SDS011;3967;48.702;9.326;2023-11-19T00:37:26;6.00;;;4.93;;
7843;SDS011;3967;48.702;9.326;2023-11-19T00:39:53;5.93;;;4.50;;
7843;SDS011;3967;48.702;9.326;2023-11-19T00:42:22;5.07;;;4.37;;
7843;SDS011;3967;48.702;9.326;2023-11-19T00:44:50;7.43;;;4.83;;
7843;SDS011;3967;48.702;9.326;2023-11-19T00:47:17;4.43;;;4.00;;
7843;SDS011;3967;48.702;9.326;2023-11-19T00:49:47;4.23;;;3.80;;
7843;SDS011;3967;48.702;9.326;2023-11-19T00:52:17;3.17;;;2.90;;
7843;SDS011;3967;48.702;9.326;2023-11-19T00:54:45;4.53;;;3.20;;
7843;SDS011;3967;48.702;9.326;2023-11-19T00:57:11;3.63;;;2.80;;
7843;SDS011;3967;48.702;9.326;2023-11-19T00:59:40;3.10;;;2.80;;
7843;SDS011;3967;48.702;9.326;2023-11-19T01:02:08;3.00;;;2.33;;
7843;SDS011;3967;48.702;9.326;2023-11-19T01:04:35;3.70;;;3.20;;
7843;SDS011;3967;48.702;9.326;2023-11-19T01:07:03;2.97;;;2.73;;
7843;SDS011;3967;48.702;9.326;2023-11-19T01:09:30;2.83;;;2.50;;
7843;SDS011;3967;48.702;9.326;2023-11-19T01:12:02;3.87;;;2.93;;
7843;SDS011;3967;48.702;9.326;2023-11-19T01:14:29;3.23;;;2.60;;
7843;SDS011;3967;48.702;9.326;2023-11-19T01:16:56;2.97;;;2.70;;
7843;SDS011;3967;48.702;9.326;2023-11-19T01:19:24;4.30;;;2.83;;
7843;SDS011;3967;48.702;9.326;2023-11-19T01:21:51;4.87;;;2.73;;
7843;SDS011;3967;48.702;9.326;2023-11-19T01:24:18;3.03;;;2.83;;
7843;SDS011;3967;48.702;9.326;2023-11-19T01:26:44;2.70;;;2.23;;
7843;SDS011;3967;48.702;9.326;2023-11-19T01:29:12;3.77;;;2.77;;
7843;SDS011;3967;48.702;9.326;2023-11-19T01:31:40;2.20;;;2.10;;
7843;SDS011;3967;48.702;9.326;2023-11-19T01:34:07;2.47;;;2.27;;
7843;SDS011;3967;48.702;9.326;2023-11-19T01:36:34;2.07;;;1.87;;
7843;SDS011;3967;48.702;9.326;2023-11-19T01:39:01;3.37;;;2.43;;
7843;SDS011;3967;48.702;9.326;2023-11-19T01:41:36;2.67;;;2.47;;
7843;SDS011;3967;48.702;9.326;2023-11-19T01:44:03;2.60;;;2.40;;
7843;SDS011;3967;48.702;9.326;2023-11-19T01:46:31;4.03;;;2.50;;
7843;SDS011;3967;48.702;9.326;2023-11-19T01:48:59;2.33;;;2.13;;
7843;SDS011;3967;48.702;9.326;2023-11-19T01:51:27;2.43;;;2.23;;
7843;SDS011;3967;48.702;9.326;2023-11-19T01:53:55;2.57;;;2.37;;
7843;SDS011;3967;48.702;9.326;2023-11-19T01:56:23;2.97;;;1.90;;
7843;SDS011;3967;48.702;9.326;2023-11-19T01:58:51;2.63;;;2.40;;
7843;SDS011;3967;48.702;9.326;2023-11-19T02:01:20;2.23;;;2.13;;
7843;SDS011;3967;48.702;9.326;2023-11-19T02:03:47;2.60;;;2.00;;
7843;SDS011;3967;48.702;9.326;2023-11-19T02:06:14;3.93;;;2.03;;
7843;SDS011;3967;48.702;9.326;2023-11-19T02:08:42;2.77;;;2.50;;
7843;SDS011;3967;48.702;9.326;2023-11-19T02:11:09;2.13;;;1.97;;
7843;SDS011;3967;48.702;9.326;2023-11-19T02:13:37;2.50;;;1.90;;
7843;SDS011;3967;48.702;9.326;2023-11-19T02:16:04;3.87;;;2.20;;
7843;SDS011;3967;48.702;9.326;2023-11-19T02:18:31;2.47;;;1.90;;
7843;SDS011;3967;48.702;9.326;2023-11-19T02:20:59;2.10;;;1.90;;
7843;SDS011;3967;48.702;9.326;2023-11-19T02:23:26;3.50;;;2.43;;
7843;SDS011;3967;48.702;9.326;2023-11-19T02:26:00;3.07;;;2.10;;
7843;SDS011;3967;48.702;9.326;2023-11-19T02:28:28;2.57;;;2.37;;
7843;SDS011;3967;48.702;9.326;2023-11-19T02:30:55;3.07;;;1.90;;
7843;SDS011;3967;48.702;9.326;2023-11-19T02:33:22;3.30;;;2.10;;
7843;SDS011;3967;48.702;9.326;2023-11-19T02:35:49;2.17;;;2.00;;
7843;SDS011;3967;48.702;9.326;2023-11-19T02:38:16;2.60;;;2.40;;
7843;SDS011;3967;48.702;9.326;2023-11-19T02:40:43;1.97;;;1.87;;
7843;SDS011;3967;48.702;9.326;2023-11-19T02:43:09;2.27;;;2.03;;
7843;SDS011;3967;48.702;9.326;2023-11-19T02:45:36;2.77;;;1.80;;
7843;SDS011;3967;48.702;9.326;2023-11-19T02:48:03;3.10;;;2.90;;
7843;SDS011;3967;48.702;9.326;2023-11-19T02:50:32;2.00;;;1.90;;
7843;SDS011;3967;48.702;9.326;2023-11-19T02:52:59;2.03;;;1.73;;
7843;SDS011;3967;48.702;9.326;2023-11-19T02:55:27;4.07;;;3.00;;
7843;SDS011;3967;48.702;9.326;2023-11-19T02:57:56;2.80;;;2.10;;
7843;SDS011;3967;48.702;9.326;2023-11-19T03:00:25;5.63;;;3.47;;
7843;SDS011;3967;48.702;9.326;2023-11-19T03:03:13;5.60;;;4.07;;
7843;SDS011;3967;48.702;9.326;2023-11-19T03:05:49;4.20;;;3.80;;
7843;SDS011;3967;48.702;9.326;2023-11-19T03:08:16;2.23;;;2.13;;
7843;SDS011;3967;48.702;9.326;2023-11-19T03:10:46;3.97;;;3.50;;
7843;SDS011;3967;48.702;9.326;2023-11-19T03:13:13;2.20;;;2.00;;
7843;SDS011;3967;48.702;9.326;2023-11-19T03:15:40;2.43;;;2.23;;
7843;SDS011;3967;48.702;9.326;2023-11-19T03:18:07;4.07;;;3.10;;
7843;SDS011;3967;48.702;9.326;2023-11-19T03:20:34;5.57;;;3.43;;
7843;SDS011;3967;48.702;9.326;2023-11-19T03:23:01;3.23;;;2.93;;
7843;SDS011;3967;48.702;9.326;2023-11-19T03:25:28;3.77;;;3.27;;
7843;SDS011;3967;48.702;9.326;2023-11-19T03:28:00;3.53;;;2.70;;
7843;SDS011;3967;48.702;9.326;2023-11-19T03:30:30;2.33;;;2.10;;
7843;SDS011;3967;48.702;9.326;2023-11-19T03:33:00;2.30;;;2.10;;
7843;SDS011;3967;48.702;9.326;2023-11-19T03:35:28;2.50;;;2.20;;
7843;SDS011;3967;48.702;9.326;2023-11-19T03:37:56;1.80;;;1.70;;
7843;SDS011;3967;48.702;9.326;2023-11-19T03:40:22;2.40;;;2.10;;
7843;SDS011;3967;48.702;9.326;2023-11-19T03:42:51;1.70;;;1.60;;
7843;SDS011;3967;48.702;9.326;2023-11-19T03:45:18;1.57;;;1.47;;
7843;SDS011;3967;48.702;9.326;2023-11-19T03:47:44;1.37;;;1.27;;
7843;SDS011;3967;48.702;9.326;2023-11-19T03:50:11;1.33;;;1.17;;
7843;SDS011;3967;48.702;9.326;2023-11-19T03:52:38;1.50;;;1.40;;
7843;SDS011;3967;48.702;9.326;2023-11-19T03:55:07;1.97;;;1.07;;
7843;SDS011;3967;48.702;9.326;2023-11-19T03:57:35;1.33;;;1.23;;
7843;SDS011;3967;48.702;9.326;2023-11-19T04:00:02;1.67;;;1.57;;
7843;SDS011;3967;48.702;9.326;2023-11-19T04:02:36;2.30;;;1.77;;
7843;SDS011;3967;48.702;9.326;2023-11-19T04:05:03;2.00;;;1.90;;
7843;SDS011;3967;48.702;9.326;2023-11-19T04:07:31;1.77;;;1.67;;
7843;SDS011;3967;48.702;9.326;2023-11-19T04:09:58;2.20;;;2.00;;
7843;SDS011;3967;48.702;9.326;2023-11-19T04:12:26;2.13;;;1.90;;
7843;SDS011;3967;48.702;9.326;2023-11-19T04:14:52;2.37;;;2.17;;
7843;SDS011;3967;48.702;9.326;2023-11-19T04:17:22;2.00;;;1.90;;
7843;SDS011;3967;48.702;9.326;2023-11-19T04:19:49;2.30;;;2.10;;
7843;SDS011;3967;48.702;9.326;2023-11-19T04:22:16;4.40;;;2.30;;
7843;SDS011;3967;48.702;9.326;2023-11-19T04:24:43;2.20;;;2.10;;
7843;SDS011;3967;48.702;9.326;2023-11-19T04:27:11;2.10;;;2.00;;
7843;SDS011;3967;48.702;9.326;2023-11-19T04:29:38;2.67;;;2.20;;
7843;SDS011;3967;48.702;9.326;2023-11-19T04:32:05;2.40;;;1.70;;
7843;SDS011;3967;48.702;9.326;2023-11-19T04:34:32;1.53;;;1.43;;
7843;SDS011;3967;48.702;9.326;2023-11-19T04:36:59;2.37;;;1.50;;
7843;SDS011;3967;48.702;9.326;2023-11-19T04:39:32;2.70;;;1.20;;
7843;SDS011;3967;48.702;9.326;2023-11-19T04:41:59;1.47;;;1.10;;
7843;SDS011;3967;48.702;9.326;2023-11-19T04:44:25;1.47;;;0.90;;
7843;SDS011;3967;48.702;9.326;2023-11-19T04:46:52;0.87;;;0.87;;
7843;SDS011;3967;48.702;9.326;2023-11-19T04:49:19;1.27;;;1.00;;
7843;SDS011;3967;48.702;9.326;2023-11-19T04:51:47;1.27;;;0.83;;
7843;SDS011;3967;48.702;9.326;2023-11-19T04:54:14;1.53;;;0.70;;
7843;SDS011;3967;48.702;9.326;2023-11-19T04:56:44;0.40;;;0.40;;
7843;SDS011;3967;48.702;9.326;2023-11-19T04:59:12;1.30;;;0.40;;
7843;SDS011;3967;48.702;9.326;2023-11-19T05:01:39;0.20;;;0.20;;
7843;SDS011;3967;48.702;9.326;2023-11-19T05:04:06;0.30;;;0.30;;
7843;SDS011;3967;48.702;9.326;2023-11-19T05:06:34;0.30;;;0.30;;
7843;SDS011;3967;48.702;9.326;2023-11-19T05:09:01;0.20;;;0.20;;
7843;SDS011;3967;48.702;9.326;2023-11-19T05:11:34;0.20;;;0.20;;
7843;SDS011;3967;48.702;9.326;2023-11-19T05:14:04;0.40;;;0.40;;
7843;SDS011;3967;48.702;9.326;2023-11-19T05:16:31;1.50;;;0.40;;
7843;SDS011;3967;48.702;9.326;2023-11-19T05:18:58;0.20;;;0.20;;
7843;SDS011;3967;48.702;9.326;2023-11-19T05:21:25;0.30;;;0.20;;
7843;SDS011;3967;48.702;9.326;2023-11-19T05:23:52;0.30;;;0.30;;
7843;SDS011;3967;48.702;9.326;2023-11-19T05:26:21;0.10;;;0.10;;
7843;SDS011;3967;48.702;9.326;2023-11-19T05:28:49;1.57;;;0.40;;
7843;SDS011;3967;48.702;9.326;2023-11-19T05:31:17;0.83;;;0.20;;
7843;SDS011;3967;48.702;9.326;2023-11-19T05:33:44;0.20;;;0.20;;
7843;SDS011;3967;48.702;9.326;2023-11-19T05:36:11;0.10;;;0.10;;
7843;SDS011;3967;48.702;9.326;2023-11-19T05:38:41;0.43;;;0.23;;
7843;SDS011;3967;48.702;9.326;2023-11-19T05:41:08;4.23;;;0.60;;
7843;SDS011;3967;48.702;9.326;2023-11-19T05:43:34;0.40;;;0.30;;
7843;SDS011;3967;48.702;9.326;2023-11-19T05:46:01;0.20;;;0.10;;
7843;SDS011;3967;48.702;9.326;2023-11-19T05:48:28;0.20;;;0.20;;
7843;SDS011;3967;48.702;9.326;2023-11-19T05:50:55;0.20;;;0.20;;
7843;SDS011;3967;48.702;9.326;2023-11-19T05:53:22;0.20;;;0.20;;
7843;SDS011;3967;48.702;9.326;2023-11-19T05:55:50;0.17;;;0.17;;
7843;SDS011;3967;48.702;9.326;2023-11-19T05:58:26;0.10;;;0.10;;
7843;SDS011;3967;48.702;9.326;2023-11-19T06:00:55;0.47;;;0.30;;
7843;SDS011;3967;48.702;9.326;2023-11-19T06:03:23;0.20;;;0.20;;
7843;SDS011;3967;48.702;9.326;2023-11-19T06:05:50;1.50;;;0.20;;
7843;SDS011;3967;48.702;9.326;2023-11-19T06:08:17;0.20;;;0.17;;
7843;SDS011;3967;48.702;9.326;2023-11-19T06:10:43;0.83;;;0.83;;
7843;SDS011;3967;48.702;9.326;2023-11-19T06:13:13;0.80;;;0.73;;
7843;SDS011;3967;48.702;9.326;2023-11-19T06:15:41;0.23;;;0.20;;
7843;SDS011;3967;48.702;9.326;2023-11-19T06:18:09;1.23;;;0.10;;
7843;SDS011;3967;48.702;9.326;2023-11-19T06:20:38;0.30;;;0.30;;
7843;SDS011;3967;48.702;9.326;2023-11-19T06:23:07;0.30;;;0.30;;
7843;SDS011;3967;48.702;9.326;2023-11-19T06:25:34;0.40;;;0.20;;
7843;SDS011;3967;48.702;9.326;2023-11-19T06:28:02;0.40;;;0.20;;
7843;SDS011;3967;48.702;9.326;2023-11-19T06:30:29;1.70;;;0.40;;
7843;SDS011;3967;48.702;9.326;2023-11-19T06:32:58;2.17;;;0.30;;
7843;SDS011;3967;48.702;9.326;2023-11-19T06:35:26;0.20;;;0.20;;
7843;SDS011;3967;48.702;9.326;2023-11-19T06:37:53;0.40;;;0.40;;
7843;SDS011;3967;48.702;9.326;2023-11-19T06:40:19;0.30;;;0.30;;
7843;SDS011;3967;48.702;9.326;2023-11-19T06:42:46;0.23;;;0.20;;
7843;SDS011;3967;48.702;9.326;2023-11-19T06:45:13;0.23;;;0.23;;
7843;SDS011;3967;48.702;9.326;2023-11-19T06:47:40;0.30;;;0.20;;
7843;SDS011;3967;48.702;9.326;2023-11-19T06:50:07;0.30;;;0.30;;
7843;SDS011;3967;48.702;9.326;2023-11-19T06:52:35;0.20;;;0.20;;
7843;SDS011;3967;48.702;9.326;2023-11-19T06:55:03;0.30;;;0.30;;
7843;SDS011;3967;48.702;9.326;2023-11-19T06:57:34;0.20;;;0.20;;
7843;SDS011;3967;48.702;9.326;2023-11-19T07:00:01;1.60;;;0.30;;
7843;SDS011;3967;48.702;9.326;2023-11-19T07:02:29;0.53;;;0.20;;
7843;SDS011;3967;48.702;9.326;2023-11-19T07:04:56;0.50;;;0.43;;
7843;SDS011;3967;48.702;9.326;2023-11-19T07:07:23;0.60;;;0.50;;
7843;SDS011;3967;48.702;9.326;2023-11-19T07:09:50;0.80;;;0.80;;
7843;SDS011;3967;48.702;9.326;2023-11-19T07:12:17;0.43;;;0.43;;
7843;SDS011;3967;48.702;9.326;2023-11-19T07:14:44;2.30;;;1.20;;
7843;SDS011;3967;48.702;9.326;2023-11-19T07:17:10;1.00;;;1.00;;
7843;SDS011;3967;48.702;9.326;2023-11-19T07:19:37;1.60;;;0.90;;
7843;SDS011;3967;48.702;9.326;2023-11-19T07:22:05;2.07;;;0.97;;
7843;SDS011;3967;48.702;9.326;2023-11-19T07:24:33;0.43;;;0.40;;
7843;SDS011;3967;48.702;9.326;2023-11-19T07:27:00;0.63;;;0.40;;
7843;SDS011;3967;48.702;9.326;2023-11-19T07:29:28;2.53;;;0.40;;
7843;SDS011;3967;48.702;9.326;2023-11-19T07:31:55;0.40;;;0.40;;
7843;SDS011;3967;48.702;9.326;2023-11-19T07:34:23;1.23;;;0.30;;
7843;SDS011;3967;48.702;9.326;2023-11-19T07:36:51;0.43;;;0.40;;
7843;SDS011;3967;48.702;9.326;2023-11-19T07:39:18;1.07;;;1.07;;
7843;SDS011;3967;48.702;9.326;2023-11-19T07:41:47;1.77;;;0.60;;
7843;SDS011;3967;48.702;9.326;2023-11-19T07:44:13;0.60;;;0.60;;
7843;SDS011;3967;48.702;9.326;2023-11-19T07:46:40;0.40;;;0.40;;
7843;SDS011;3967;48.702;9.326;2023-11-19T07:49:08;0.60;;;0.60;;
7843;SDS011;3967;48.702;9.326;2023-11-19T07:51:36;1.13;;;0.20;;
7843;SDS011;3967;48.702;9.326;2023-11-19T07:54:03;1.53;;;0.50;;
7843;SDS011;3967;48.702;9.326;2023-11-19T07:56:31;0.30;;;0.30;;
7843;SDS011;3967;48.702;9.326;2023-11-19T07:59:01;0.30;;;0.30;;
7843;SDS011;3967;48.702;9.326;2023-11-19T08:01:30;0.20;;;0.20;;
7843;SDS011;3967;48.702;9.326;2023-11-19T08:03:57;0.40;;;0.30;;
7843;SDS011;3967;48.702;9.326;2023-11-19T08:06:25;0.57;;;0.30;;
7843;SDS011;3967;48.702;9.326;2023-11-19T08:08:52;1.13;;;0.40;;
7843;SDS011;3967;48.702;9.326;2023-11-19T08:11:19;0.20;;;0.20;;
7843;SDS011;3967;48.702;9.326;2023-11-19T08:13:46;1.27;;;0.37;;
7843;SDS011;3967;48.702;9.326;2023-11-19T08:16:13;0.93;;;0.40;;
7843;SDS011;3967;48.702;9.326;2023-11-19T08:18:42;0.50;;;0.50;;
7843;SDS011;3967;48.702;9.326;2023-11-19T08:21:09;0.57;;;0.57;;
7843;SDS011;3967;48.702;9.326;2023-11-19T08:23:36;0.57;;;0.50;;
7843;SDS011;3967;48.702;9.326;2023-11-19T08:26:05;1.07;;;0.53;;
7843;SDS011;3967;48.702;9.326;2023-11-19T08:28:32;1.07;;;0.53;;
7843;SDS011;3967;48.702;9.326;2023-11-19T08:31:03;0.80;;;0.50;;
7843;SDS011;3967;48.702;9.326;2023-11-19T08:33:32;1.97;;;1.40;;
7843;SDS011;3967;48.702;9.326;2023-11-19T08:35:58;5.47;;;3.40;;
7843;SDS011;3967;48.702;9.326;2023-11-19T08:38:26;7.93;;;4.93;;
7843;SDS011;3967;48.702;9.326;2023-11-19T08:40:55;12.63;;;6.50;;
7843;SDS011;3967;48.702;9.326;2023-11-19T08:43:26;2.83;;;2.40;;
7843;SDS011;3967;48.702;9.326;2023-11-19T08:45:53;2.60;;;2.27;;
7843;SDS011;3967;48.702;9.326;2023-11-19T08:48:20;1.10;;;1.00;;
7843;SDS011;3967;48.702;9.326;2023-11-19T08:50:47;1.00;;;0.90;;
7843;SDS011;3967;48.702;9.326;2023-11-19T08:53:14;0.73;;;0.73;;
7843;SDS011;3967;48.702;9.326;2023-11-19T08:55:41;1.47;;;1.17;;
7843;SDS011;3967;48.702;9.326;2023-11-19T08:58:08;1.60;;;0.50;;
7843;SDS011;3967;48.702;9.326;2023-11-19T09:00:35;1.60;;;0.70;;
7843;SDS011;3967;48.702;9.326;2023-11-19T09:03:02;0.83;;;0.50;;
7843;SDS011;3967;48.702;9.326;2023-11-19T09:05:30;1.57;;;0.50;;
7843;SDS011;3967;48.702;9.326;2023-11-19T09:07:56;0.30;;;0.20;;
7843;SDS011;3967;48.702;9.326;2023-11-19T09:10:23;0.63;;;0.60;;
7843;SDS011;3967;48.702;9.326;2023-11-19T09:12:50;0.67;;;0.67;;
7843;SDS011;3967;48.702;9.326;2023-11-19T09:15:17;0.80;;;0.40;;
7843;SDS011;3967;48.702;9.326;2023-11-19T09:17:43;1.37;;;0.70;;
7843;SDS011;3967;48.702;9.326;2023-11-19T09:20:12;0.60;;;0.60;;
7843;SDS011;3967;48.702;9.326;2023-11-19T09:22:41;2.43;;;0.43;;
7843;SDS011;3967;48.702;9.326;2023-11-19T09:25:08;1.77;;;1.67;;
7843;SDS011;3967;48.702;9.326;2023-11-19T09:27:35;2.03;;;1.50;;
7843;SDS011;3967;48.702;9.326;2023-11-19T09:30:02;1.73;;;1.20;;
7843;SDS011;3967;48.702;9.326;2023-11-19T09:32:30;0.67;;;0.67;;
7843;SDS011;3967;48.702;9.326;2023-11-19T09:34:57;0.93;;;0.60;;
7843;SDS011;3967;48.702;9.326;2023-11-19T09:37:24;1.53;;;1.43;;
7843;SDS011;3967;48.702;9.326;2023-11-19T09:39:51;3.13;;;1.43;;
7843;SDS011;3967;48.702;9.326;2023-11-19T09:42:19;1.67;;;0.70;;
7843;SDS011;3967;48.702;9.326;2023-11-19T09:44:46;1.47;;;0.50;;
7843;SDS011;3967;48.702;9.326;2023-11-19T09:47:14;0.80;;;0.40;;
7843;SDS011;3967;48.702;9.326;2023-11-19T09:49:43;1.17;;;0.90;;
7843;SDS011;3967;48.702;9.326;2023-11-19T09:52:10;0.83;;;0.50;;
7843;SDS011;3967;48.702;9.326;2023-11-19T09:54:37;1.23;;;0.40;;
7843;SDS011;3967;48.702;9.326;2023-11-19T09:57:04;0.40;;;0.30;;
7843;SDS011;3967;48.702;9.326;2023-11-19T09:59:32;0.40;;;0.30;;
7843;SDS011;3967;48.702;9.326;2023-11-19T10:01:59;1.13;;;0.27;;
7843;SDS011;3967;48.702;9.326;2023-11-19T10:04:28;0.43;;;0.30;;
7843;SDS011;3967;48.702;9.326;2023-11-19T10:06:57;0.70;;;0.33;;
7843;SDS011;3967;48.702;9.326;2023-11-19T10:09:24;1.90;;;0.30;;
7843;SDS011;3967;48.702;9.326;2023-11-19T10:11:51;1.90;;;0.50;;
7843;SDS011;3967;48.702;9.326;2023-11-19T10:14:19;0.57;;;0.30;;
7843;SDS011;3967;48.702;9.326;2023-11-19T10:16:49;0.27;;;0.27;;
7843;SDS011;3967;48.702;9.326;2023-11-19T10:19:19;1.23;;;0.57;;
7843;SDS011;3967;48.702;9.326;2023-11-19T10:21:47;1.30;;;1.20;;
7843;SDS011;3967;48.702;9.326;2023-11-19T10:24:14;2.30;;;0.97;;
7843;SDS011;3967;48.702;9.326;2023-11-19T10:26:56;0.70;;;0.70;;
7843;SDS011;3967;48.702;9.326;2023-11-19T10:29:23;3.07;;;0.50;;
7843;SDS011;3967;48.702;9.326;2023-11-19T10:31:59;0.87;;;0.40;;
7843;SDS011;3967;48.702;9.326;2023-11-19T10:34:46;1.00;;;0.60;;
7843;SDS011;3967;48.702;9.326;2023-11-19T10:37:28;1.00;;;0.43;;
7843;SDS011;3967;48.702;9.326;2023-11-19T10:40:01;0.60;;;0.40;;
7843;SDS011;3967;48.702;9.326;2023-11-19T10:42:31;1.70;;;0.60;;
7843;SDS011;3967;48.702;9.326;2023-11-19T10:44:58;1.10;;;0.70;;
7843;SDS011;3967;48.702;9.326;2023-11-19T10:47:25;0.70;;;0.60;;
7843;SDS011;3967;48.702;9.326;2023-11-19T10:49:55;3.10;;;1.20;;
7843;SDS011;3967;48.702;9.326;2023-11-19T10:52:22;0.70;;;0.60;;
7843;SDS011;3967;48.702;9.326;2023-11-19T10:54:50;1.13;;;0.60;;
7843;SDS011;3967;48.702;9.326;2023-11-19T10:57:21;0.50;;;0.50;;
7843;SDS011;3967;48.702;9.326;2023-11-19T10:59:54;0.53;;;0.40;;
7843;SDS011;3967;48.702;9.326;2023-11-19T11:02:27;2.10;;;0.70;;
7843;SDS011;3967;48.702;9.326;2023-11-19T11:04:56;0.70;;;0.70;;
7843;SDS011;3967;48.702;9.326;2023-11-19T11:07:24;0.47;;;0.47;;
7843;SDS011;3967;48.702;9.326;2023-11-19T11:10:05;0.97;;;0.80;;
7843;SDS011;3967;48.702;9.326;2023-11-19T11:12:37;0.70;;;0.60;;
7843;SDS011;3967;48.702;9.326;2023-11-19T11:15:08;0.77;;;0.50;;
7843;SDS011;3967;48.702;9.326;2023-11-19T11:17:41;0.40;;;0.40;;
7843;SDS011;3967;48.702;9.326;2023-11-19T11:20:11;0.40;;;0.30;;
7843;SDS011;3967;48.702;9.326;2023-11-19T11:22:54;0.30;;;0.30;;
7843;SDS011;3967;48.702;9.326;2023-11-19T11:28:24;0.30;;;0.13;;
7843;SDS011;3967;48.702;9.326;2023-11-19T11:31:07;0.30;;;0.30;;
7843;SDS011;3967;48.702;9.326;2023-11-19T11:36:29;0.20;;;0.20;;
7843;SDS011;3967;48.702;9.326;2023-11-19T11:39:00;0.43;;;0.40;;
7843;SDS011;3967;48.702;9.326;2023-11-19T11:41:33;0.37;;;0.30;;
7843;SDS011;3967;48.702;9.326;2023-11-19T11:44:00;0.30;;;0.30;;
7843;SDS011;3967;48.702;9.326;2023-11-19T11:54:31;0.73;;;0.37;;
7843;SDS011;3967;48.702;9.326;2023-11-19T11:57:01;1.30;;;0.73;;
7843;SDS011;3967;48.702;9.326;2023-11-19T12:02:09;1.07;;;0.33;;
7843;SDS011;3967;48.702;9.326;2023-11-19T12:04:37;0.57;;;0.30;;
7843;SDS011;3967;48.702;9.326;2023-11-19T12:07:06;0.63;;;0.20;;
7843;SDS011;3967;48.702;9.326;2023-11-19T12:09:41;2.03;;;0.60;;
7843;SDS011;3967;48.702;9.326;2023-11-19T12:20:00;0.80;;;0.40;;
7843;SDS011;3967;48.702;9.326;2023-11-19T12:22:27;0.23;;;0.23;;
7843;SDS011;3967;48.702;9.326;2023-11-19T12:24:54;0.30;;;0.20;;
7843;SDS011;3967;48.702;9.326;2023-11-19T12:27:22;1.73;;;0.37;;
7843;SDS011;3967;48.702;9.326;2023-11-19T12:29:49;0.77;;;0.30;;
7843;SDS011;3967;48.702;9.326;2023-11-19T12:32:16;1.93;;;0.30;;
7843;SDS011;3967;48.702;9.326;2023-11-19T12:34:44;1.10;;;0.53;;
7843;SDS011;3967;48.702;9.326;2023-11-19T12:37:11;4.33;;;0.43;;
7843;SDS011;3967;48.702;9.326;2023-11-19T12:39:38;1.00;;;0.40;;
7843;SDS011;3967;48.702;9.326;2023-11-19T12:42:06;0.40;;;0.30;;
7843;SDS011;3967;48.702;9.326;2023-11-19T12:44:33;0.80;;;0.40;;
7843;SDS011;3967;48.702;9.326;2023-11-19T12:47:01;0.50;;;0.40;;
7843;SDS011;3967;48.702;9.326;2023-11-19T12:49:29;0.30;;;0.30;;
7843;SDS011;3967;48.702;9.326;2023-11-19T12:51:56;1.50;;;0.20;;
7843;SDS011;3967;48.702;9.326;2023-11-19T12:54:33;0.40;;;0.20;;
7843;SDS011;3967;48.702;9.326;2023-11-19T12:57:04;1.03;;;0.47;;
7843;SDS011;3967;48.702;9.326;2023-11-19T12:59:32;0.60;;;0.30;;
7843;SDS011;3967;48.702;9.326;2023-11-19T13:01:58;0.70;;;0.20;;
7843;SDS011;3967;48.702;9.326;2023-11-19T13:04:33;0.93;;;0.20;;
7843;SDS011;3967;48.702;9.326;2023-11-19T13:07:01;1.43;;;0.30;;
7843;SDS011;3967;48.702;9.326;2023-11-19T13:09:31;1.40;;;0.30;;
7843;SDS011;3967;48.702;9.326;2023-11-19T13:11:58;1.80;;;0.33;;
7843;SDS011;3967;48.702;9.326;2023-11-19T13:14:36;0.33;;;0.27;;
7843;SDS011;3967;48.702;9.326;2023-11-19T13:17:08;0.60;;;0.40;;
7843;SDS011;3967;48.702;9.326;2023-11-19T13:19:35;1.13;;;0.53;;
7843;SDS011;3967;48.702;9.326;2023-11-19T13:22:02;1.63;;;0.30;;
7843;SDS011;3967;48.702;9.326;2023-11-19T13:24:28;0.30;;;0.20;;
7843;SDS011;3967;48.702;9.326;2023-11-19T13:26:55;0.40;;;0.23;;
7843;SDS011;3967;48.702;9.326;2023-11-19T13:29:22;1.60;;;0.30;;
7843;SDS011;3967;48.702;9.326;2023-11-19T13:31:49;2.73;;;0.60;;
7843;SDS011;3967;48.702;9.326;2023-11-19T13:34:16;2.10;;;0.30;;
7843;SDS011;3967;48.702;9.326;2023-11-19T13:36:43;0.33;;;0.30;;
7843;SDS011;3967;48.702;9.326;2023-11-19T13:39:09;1.13;;;0.40;;
7843;SDS011;3967;48.702;9.326;2023-11-19T13:41:38;0.60;;;0.20;;
7843;SDS011;3967;48.702;9.326;2023-11-19T13:44:05;1.30;;;0.60;;
7843;SDS011;3967;48.702;9.326;2023-11-19T13:46:31;0.47;;;0.43;;
7843;SDS011;3967;48.702;9.326;2023-11-19T13:48:58;0.60;;;0.40;;
7843;SDS011;3967;48.702;9.326;2023-11-19T13:51:25;0.27;;;0.23;;
7843;SDS011;3967;48.702;9.326;2023-11-19T13:53:52;0.53;;;0.30;;
7843;SDS011;3967;48.702;9.326;2023-11-19T13:56:18;1.27;;;0.30;;
7843;SDS011;3967;48.702;9.326;2023-11-19T13:58:45;2.40;;;0.30;;
7843;SDS011;3967;48.702;9.326;2023-11-19T14:01:12;0.67;;;0.20;;
7843;SDS011;3967;48.702;9.326;2023-11-19T14:03:39;0.40;;;0.33;;
7843;SDS011;3967;48.702;9.326;2023-11-19T14:06:08;0.30;;;0.30;;
7843;SDS011;3967;48.702;9.326;2023-11-19T14:08:35;1.07;;;0.40;;
7843;SDS011;3967;48.702;9.326;2023-11-19T14:11:02;0.50;;;0.33;;
7843;SDS011;3967;48.702;9.326;2023-11-19T14:13:29;0.47;;;0.37;;
7843;SDS011;3967;48.702;9.326;2023-11-19T14:15:56;0.77;;;0.23;;
7843;SDS011;3967;48.702;9.326;2023-11-19T14:18:23;0.23;;;0.23;;
7843;SDS011;3967;48.702;9.326;2023-11-19T14:20:50;1.03;;;0.87;;
7843;SDS011;3967;48.702;9.326;2023-11-19T14:23:17;0.60;;;0.30;;
7843;SDS011;3967;48.702;9.326;2023-11-19T14:25:44;1.67;;;0.50;;
7843;SDS011;3967;48.702;9.326;2023-11-19T14:28:10;1.03;;;0.50;;
7843;SDS011;3967;48.702;9.326;2023-11-19T14:30:39;0.93;;;0.40;;
7843;SDS011;3967;48.702;9.326;2023-11-19T14:33:08;1.73;;;0.27;;
7843;SDS011;3967;48.702;9.326;2023-11-19T14:35:35;0.50;;;0.30;;
7843;SDS011;3967;48.702;9.326;2023-11-19T14:38:05;0.50;;;0.47;;
7843;SDS011;3967;48.702;9.326;2023-11-19T14:40:36;0.70;;;0.33;;
7843;SDS011;3967;48.702;9.326;2023-11-19T14:43:06;1.90;;;0.50;;
7843;SDS011;3967;48.702;9.326;2023-11-19T14:45:33;1.20;;;0.50;;
7843;SDS011;3967;48.702;9.326;2023-11-19T14:48:10;1.00;;;0.50;;
7843;SDS011;3967;48.702;9.326;2023-11-19T14:50:37;2.03;;;0.77;;
7843;SDS011;3967;48.702;9.326;2023-11-19T14:53:04;3.10;;;1.10;;
7843;SDS011;3967;48.702;9.326;2023-11-19T14:55:31;1.40;;;0.77;;
7843;SDS011;3967;48.702;9.326;2023-11-19T14:57:58;1.43;;;0.80;;
7843;SDS011;3967;48.702;9.326;2023-11-19T15:00:35;0.87;;;0.77;;
7843;SDS011;3967;48.702;9.326;2023-11-19T15:03:04;1.03;;;0.50;;
7843;SDS011;3967;48.702;9.326;2023-11-19T15:05:32;1.83;;;0.90;;
7843;SDS011;3967;48.702;9.326;2023-11-19T15:08:00;1.17;;;0.80;;
7843;SDS011;3967;48.702;9.326;2023-11-19T15:10:29;0.73;;;0.60;;
7843;SDS011;3967;48.702;9.326;2023-11-19T15:12:56;1.80;;;0.53;;
7843;SDS011;3967;48.702;9.326;2023-11-19T15:15:24;1.90;;;0.50;;
7843;SDS011;3967;48.702;9.326;2023-11-19T15:17:53;1.27;;;0.57;;
7843;SDS011;3967;48.702;9.326;2023-11-19T15:20:20;0.37;;;0.33;;
7843;SDS011;3967;48.702;9.326;2023-11-19T15:22:47;0.53;;;0.40;;
7843;SDS011;3967;48.702;9.326;2023-11-19T15:25:14;0.23;;;0.23;;
7843;SDS011;3967;48.702;9.326;2023-11-19T15:27:40;0.60;;;0.40;;
7843;SDS011;3967;48.702;9.326;2023-11-19T15:30:08;1.30;;;0.57;;
7843;SDS011;3967;48.702;9.326;2023-11-19T15:32:36;0.33;;;0.33;;
7843;SDS011;3967;48.702;9.326;2023-11-19T15:35:06;0.57;;;0.53;;
7843;SDS011;3967;48.702;9.326;2023-11-19T15:37:34;0.50;;;0.50;;
7843;SDS011;3967;48.702;9.326;2023-11-19T15:40:02;2.30;;;0.80;;
7843;SDS011;3967;48.702;9.326;2023-11-19T15:42:34;0.57;;;0.50;;
7843;SDS011;3967;48.702;9.326;2023-11-19T15:45:01;0.87;;;0.80;;